createdAt,value
2018-09-24T00:01:07.463Z,0.70
2018-09-24T00:03:36.331Z,0.50
2018-09-24T00:06:05.228Z,0.60
2018-09-24T00:08:34.109Z,0.78
2018-09-24T00:11:03.028Z,0.60
2018-09-24T00:13:31.918Z,0.60
2018-09-24T00:16:00.822Z,0.50
2018-09-24T00:18:29.707Z,0.62
2018-09-24T00:20:58.609Z,0.60
2018-09-24T00:23:28.291Z,0.60
2018-09-24T00:25:57.183Z,0.60
2018-09-24T00:28:30.854Z,0.57
2018-09-24T00:30:59.759Z,0.62
2018-09-24T00:33:28.627Z,0.62
2018-09-24T00:35:57.516Z,0.50
2018-09-24T00:38:26.395Z,0.70
2018-09-24T00:40:55.263Z,0.72
2018-09-24T00:43:24.126Z,0.60
2018-09-24T00:45:52.986Z,0.50
2018-09-24T00:48:22.051Z,0.70
2018-09-24T00:50:50.933Z,0.60
2018-09-24T00:53:19.803Z,0.78
2018-09-24T00:55:48.694Z,0.60
2018-09-24T00:58:17.549Z,0.68
2018-09-24T01:00:46.450Z,0.70
2018-09-24T01:03:15.326Z,0.57
2018-09-24T01:05:44.194Z,0.80
2018-09-24T01:08:13.050Z,0.70
2018-09-24T01:10:41.914Z,0.70
2018-09-24T01:13:10.802Z,0.80
2018-09-24T01:15:39.678Z,0.70
2018-09-24T01:18:08.546Z,0.70
2018-09-24T01:20:37.446Z,0.70
2018-09-24T01:23:06.294Z,0.88
2018-09-24T01:25:35.166Z,0.82
2018-09-24T01:28:04.044Z,0.90
2018-09-24T01:30:32.930Z,0.80
2018-09-24T01:33:02.115Z,0.80
2018-09-24T01:35:31.017Z,0.85
2018-09-24T01:37:59.894Z,0.90
2018-09-24T01:40:28.783Z,0.70
2018-09-24T01:42:57.654Z,0.82
2018-09-24T01:45:26.563Z,0.85
2018-09-24T01:47:55.435Z,1.30
2018-09-24T01:50:24.319Z,0.70
2018-09-24T01:52:53.222Z,1.02
2018-09-24T01:55:22.101Z,0.90
2018-09-24T01:57:50.967Z,1.00
2018-09-24T02:00:19.842Z,0.68
2018-09-24T02:02:48.723Z,1.10
2018-09-24T02:05:17.615Z,0.80
2018-09-24T02:07:46.482Z,1.00
2018-09-24T02:10:21.966Z,0.90
2018-09-24T02:12:52.454Z,0.75
2018-09-24T02:15:25.806Z,1.00
2018-09-24T02:17:54.703Z,0.90
2018-09-24T02:20:23.615Z,1.70
2018-09-24T02:22:52.490Z,0.78
2018-09-24T02:25:21.421Z,0.98
2018-09-24T02:27:50.410Z,0.80
2018-09-24T02:30:20.023Z,0.80
2018-09-24T02:32:48.918Z,1.30
2018-09-24T02:35:17.815Z,1.05
2018-09-24T02:37:46.677Z,0.95
2018-09-24T02:40:22.182Z,1.50
2018-09-24T02:42:51.405Z,1.20
2018-09-24T02:45:20.723Z,1.35
2018-09-24T02:47:49.619Z,1.30
2018-09-24T02:50:18.495Z,1.10
2018-09-24T02:52:47.370Z,1.00
2018-09-24T02:55:18.494Z,1.25
2018-09-24T02:57:47.363Z,0.93
2018-09-24T03:00:20.755Z,1.35
2018-09-24T03:02:49.896Z,1.42
2018-09-24T03:05:18.802Z,1.52
2018-09-24T03:07:47.658Z,1.50
2018-09-24T03:10:16.603Z,1.20
2018-09-24T03:12:47.871Z,1.50
2018-09-24T03:15:16.754Z,1.30
2018-09-24T03:17:45.626Z,1.40
2018-09-24T03:20:14.830Z,1.20
2018-09-24T03:22:43.699Z,1.62
2018-09-24T03:25:18.530Z,1.70
2018-09-24T03:27:47.525Z,1.37
2018-09-24T03:30:16.762Z,1.50
2018-09-24T03:32:45.639Z,1.42
2018-09-24T03:35:14.526Z,2.10
2018-09-24T03:37:43.387Z,1.17
2018-09-24T03:40:12.266Z,1.57
2018-09-24T03:42:41.126Z,1.50
2018-09-24T03:45:10.015Z,1.57
2018-09-24T03:47:38.886Z,1.77
2018-09-24T03:50:07.794Z,2.00
2018-09-24T03:52:36.673Z,1.45
2018-09-24T03:55:05.606Z,1.90
2018-09-24T03:57:34.492Z,1.92
2018-09-24T04:00:03.482Z,1.95
2018-09-24T04:02:32.494Z,1.42
2018-09-24T04:05:06.634Z,1.98
2018-09-24T04:07:40.814Z,1.65
2018-09-24T04:10:15.190Z,1.62
2018-09-24T04:12:49.218Z,2.25
2018-09-24T04:15:23.595Z,2.12
2018-09-24T04:17:57.798Z,1.72
2018-09-24T04:20:32.102Z,1.80
2018-09-24T04:23:06.335Z,2.55
2018-09-24T04:25:40.569Z,1.62
2018-09-24T04:28:14.815Z,2.00
2018-09-24T04:30:48.939Z,2.08
2018-09-24T04:33:23.091Z,2.20
2018-09-24T04:35:57.183Z,2.20
2018-09-24T04:38:31.357Z,1.77
2018-09-24T04:41:05.734Z,2.30
2018-09-24T04:43:40.066Z,2.05
2018-09-24T04:46:14.257Z,2.00
2018-09-24T04:48:48.429Z,2.55
2018-09-24T04:51:22.806Z,2.40
2018-09-24T04:53:56.977Z,2.58
2018-09-24T04:56:31.219Z,2.15
2018-09-24T04:59:05.422Z,2.27
2018-09-24T05:01:39.606Z,2.37
2018-09-24T05:04:13.830Z,2.52
2018-09-24T05:06:48.015Z,2.65
2018-09-24T05:09:22.166Z,2.47
2018-09-24T05:11:56.321Z,2.65
2018-09-24T05:14:30.478Z,2.50
2018-09-24T05:17:04.634Z,2.90
2018-09-24T05:19:38.737Z,3.62
2018-09-24T05:22:13.130Z,2.50
2018-09-24T05:24:47.323Z,2.77
2018-09-24T05:27:21.532Z,2.77
2018-09-24T05:29:55.597Z,3.42
2018-09-24T05:32:29.869Z,2.85
2018-09-24T05:35:04.216Z,3.00
2018-09-24T05:37:38.332Z,3.17
2018-09-24T05:40:12.847Z,3.10
2018-09-24T05:42:47.087Z,3.58
2018-09-24T05:45:21.498Z,3.55
2018-09-24T05:47:55.741Z,3.40
2018-09-24T05:50:29.866Z,3.00
2018-09-24T05:53:04.111Z,3.50
2018-09-24T05:55:38.266Z,3.65
2018-09-24T05:58:12.558Z,3.15
2018-09-24T06:00:46.874Z,3.55
2018-09-24T06:03:21.189Z,4.17
2018-09-24T06:05:55.426Z,4.40
2018-09-24T06:08:29.506Z,3.55
2018-09-24T06:11:03.667Z,3.75
2018-09-24T06:13:38.025Z,3.70
2018-09-24T06:16:12.367Z,4.62
2018-09-24T06:18:46.782Z,3.55
2018-09-24T06:21:20.901Z,2.90
2018-09-24T06:23:55.070Z,3.45
2018-09-24T06:26:29.231Z,3.17
2018-09-24T06:29:03.590Z,3.08
2018-09-24T06:31:37.813Z,4.00
2018-09-24T06:34:12.229Z,3.40
2018-09-24T06:36:46.470Z,3.87
2018-09-24T06:39:20.741Z,3.70
2018-09-24T06:41:54.933Z,3.67
2018-09-24T06:44:29.070Z,3.65
2018-09-24T06:47:03.254Z,4.15
2018-09-24T06:49:37.403Z,4.00
2018-09-24T06:52:11.737Z,4.45
2018-09-24T06:54:46.007Z,4.15
2018-09-24T06:57:20.431Z,3.72
2018-09-24T06:59:54.794Z,4.40
2018-09-24T07:02:29.134Z,3.75
2018-09-24T07:05:03.351Z,4.47
2018-09-24T07:07:37.590Z,4.03
2018-09-24T07:10:11.879Z,3.45
2018-09-24T07:12:45.990Z,4.35
2018-09-24T07:15:20.138Z,3.60
2018-09-24T07:17:54.224Z,4.05
2018-09-24T07:20:28.479Z,4.10
2018-09-24T07:23:02.702Z,4.58
2018-09-24T07:25:36.827Z,3.10
2018-09-24T07:28:11.010Z,4.47
2018-09-24T07:30:45.260Z,2.85
2018-09-24T07:33:19.474Z,3.60
2018-09-24T07:35:53.781Z,2.90
2018-09-24T07:38:27.965Z,3.75
2018-09-24T07:41:02.188Z,2.80
2018-09-24T07:43:36.621Z,3.00
2018-09-24T07:46:10.803Z,2.52
2018-09-24T07:48:45.094Z,3.50
2018-09-24T07:51:19.202Z,2.87
2018-09-24T07:53:53.524Z,2.33
2018-09-24T07:56:27.773Z,2.42
2018-09-24T07:59:01.992Z,1.87
2018-09-24T08:01:36.298Z,2.90
2018-09-24T08:04:10.581Z,2.50
2018-09-24T08:06:44.902Z,2.40
2018-09-24T08:09:19.118Z,2.30
2018-09-24T08:11:53.491Z,2.25
2018-09-24T08:14:27.939Z,2.08
2018-09-24T08:17:02.365Z,3.67
2018-09-24T08:19:36.658Z,2.15
2018-09-24T08:22:10.922Z,2.45
2018-09-24T08:24:45.087Z,2.22
2018-09-24T08:27:19.430Z,2.40
2018-09-24T08:29:53.877Z,2.25
2018-09-24T08:32:28.139Z,2.55
2018-09-24T08:35:02.305Z,2.20
2018-09-24T08:37:36.513Z,3.02
2018-09-24T08:40:10.968Z,1.80
2018-09-24T08:42:45.255Z,1.90
2018-09-24T08:45:19.670Z,2.70
2018-09-24T08:47:53.842Z,2.55
2018-09-24T08:50:27.975Z,2.27
2018-09-24T08:53:02.274Z,2.33
2018-09-24T08:55:36.383Z,1.75
2018-09-24T08:58:10.746Z,2.37
2018-09-24T09:00:44.838Z,1.95
2018-09-24T09:03:19.082Z,2.42
2018-09-24T09:05:53.291Z,1.95
2018-09-24T09:08:27.582Z,2.27
2018-09-24T09:11:01.757Z,2.00
2018-09-24T09:13:36.099Z,1.90
2018-09-24T09:16:10.517Z,2.00
2018-09-24T09:18:44.870Z,1.80
2018-09-24T09:21:19.219Z,2.15
2018-09-24T09:23:53.446Z,1.60
2018-09-24T09:26:27.708Z,1.30
2018-09-24T09:29:01.869Z,1.80
2018-09-24T09:31:36.207Z,1.75
2018-09-24T09:34:10.595Z,1.42
2018-09-24T09:36:44.661Z,1.37
2018-09-24T09:39:18.902Z,1.55
2018-09-24T09:41:53.255Z,1.50
2018-09-24T09:44:27.561Z,1.22
2018-09-24T09:47:01.886Z,1.27
2018-09-24T09:49:36.367Z,1.40
2018-09-24T09:52:10.630Z,2.00
2018-09-24T09:54:44.978Z,1.42
2018-09-24T09:57:19.166Z,1.10
2018-09-24T09:59:53.335Z,2.58
2018-09-24T10:02:27.684Z,1.57
2018-09-24T10:05:01.827Z,0.93
2018-09-24T10:07:36.190Z,1.22
2018-09-24T10:10:10.966Z,1.30
2018-09-24T10:12:45.300Z,1.20
2018-09-24T10:15:19.531Z,1.25
2018-09-24T10:17:53.887Z,1.00
2018-09-24T10:20:28.126Z,1.60
2018-09-24T10:23:02.667Z,0.90
2018-09-24T10:25:37.222Z,1.10
2018-09-24T10:28:11.565Z,1.35
2018-09-24T10:30:45.726Z,1.07
2018-09-24T10:33:20.034Z,1.10
2018-09-24T10:35:54.227Z,1.47
2018-09-24T10:38:28.562Z,1.35
2018-09-24T10:41:02.786Z,1.40
2018-09-24T10:43:36.938Z,1.30
2018-09-24T10:46:11.243Z,1.25
2018-09-24T10:48:45.567Z,1.20
2018-09-24T10:51:19.733Z,1.25
2018-09-24T10:53:53.890Z,1.40
2018-09-24T10:56:28.132Z,1.20
2018-09-24T10:59:09.404Z,1.00
2018-09-24T11:01:43.651Z,1.35
2018-09-24T11:04:18.007Z,1.55
2018-09-24T11:06:52.347Z,1.90
2018-09-24T11:09:27.230Z,1.42
2018-09-24T11:12:01.520Z,1.22
2018-09-24T11:14:35.958Z,1.30
2018-09-24T11:17:10.501Z,1.00
2018-09-24T11:19:44.479Z,1.05
2018-09-24T11:22:18.859Z,1.15
2018-09-24T11:24:53.219Z,1.45
2018-09-24T11:27:27.439Z,1.20
2018-09-24T11:30:01.755Z,1.60
2018-09-24T11:32:36.559Z,1.22
2018-09-24T11:35:11.918Z,0.98
2018-09-24T11:37:46.163Z,1.35
2018-09-24T11:40:20.602Z,1.80
2018-09-24T11:42:55.050Z,1.60
2018-09-24T11:45:29.334Z,1.30
2018-09-24T11:48:04.325Z,1.32
2018-09-24T11:50:38.578Z,1.92
2018-09-24T11:53:12.934Z,1.00
2018-09-24T11:55:46.982Z,1.05
2018-09-24T11:58:21.068Z,1.05
2018-09-24T12:00:55.310Z,1.80
2018-09-24T12:03:29.371Z,1.10
2018-09-24T12:06:03.574Z,1.12
2018-09-24T12:08:37.894Z,1.10
2018-09-24T12:11:12.278Z,0.80
2018-09-24T12:13:46.586Z,1.10
2018-09-24T12:16:20.957Z,1.30
2018-09-24T12:18:55.266Z,1.22
2018-09-24T12:21:29.514Z,1.20
2018-09-24T12:24:03.687Z,1.17
2018-09-24T12:26:37.847Z,0.80
2018-09-24T12:29:12.162Z,1.52
2018-09-24T12:31:46.625Z,1.37
2018-09-24T12:34:20.818Z,1.32
2018-09-24T12:36:55.192Z,1.25
2018-09-24T12:39:29.370Z,1.12
2018-09-24T12:42:03.604Z,1.30
2018-09-24T12:44:37.860Z,1.30
2018-09-24T12:47:12.299Z,1.10
2018-09-24T12:49:48.434Z,1.00
2018-09-24T12:52:22.659Z,1.10
2018-09-24T12:54:57.031Z,1.15
2018-09-24T12:57:31.368Z,1.10
2018-09-24T13:00:05.730Z,1.20
2018-09-24T13:02:40.099Z,0.85
2018-09-24T13:05:14.339Z,1.00
2018-09-24T13:07:48.555Z,1.00
2018-09-24T13:10:22.896Z,0.72
2018-09-24T13:12:57.131Z,1.05
2018-09-24T13:15:31.503Z,1.12
2018-09-24T13:18:05.822Z,1.30
2018-09-24T13:20:40.111Z,0.98
2018-09-24T13:23:14.450Z,1.10
2018-09-24T13:25:48.518Z,1.15
2018-09-24T13:28:22.731Z,1.17
2018-09-24T13:30:57.003Z,1.02
2018-09-24T13:33:31.403Z,0.90
2018-09-24T13:36:05.826Z,2.02
2018-09-24T13:38:40.122Z,0.80
2018-09-24T13:41:14.339Z,1.17
2018-09-24T13:43:48.783Z,1.00
2018-09-24T13:46:23.051Z,1.15
2018-09-24T13:48:57.239Z,1.17
2018-09-24T13:51:31.355Z,0.85
2018-09-24T13:54:05.558Z,1.10
2018-09-24T13:56:39.840Z,1.17
2018-09-24T13:59:13.974Z,1.32
2018-09-24T14:01:48.296Z,1.17
2018-09-24T14:04:22.511Z,1.20
2018-09-24T14:06:56.877Z,1.17
2018-09-24T14:09:31.100Z,1.32
2018-09-24T14:12:05.386Z,1.22
2018-09-24T14:14:39.670Z,1.10
2018-09-24T14:17:13.906Z,1.32
2018-09-24T14:19:48.087Z,1.00
2018-09-24T14:22:22.735Z,1.35
2018-09-24T14:24:57.086Z,1.30
2018-09-24T14:27:31.595Z,1.95
2018-09-24T14:30:05.722Z,1.02
2018-09-24T14:32:40.006Z,1.40
2018-09-24T14:35:14.331Z,1.35
2018-09-24T14:37:48.722Z,0.90
2018-09-24T14:40:22.963Z,1.32
2018-09-24T14:42:57.052Z,1.45
2018-09-24T14:45:31.130Z,0.90
2018-09-24T14:48:05.306Z,1.42
2018-09-24T14:50:39.550Z,1.05
2018-09-24T14:53:13.618Z,1.50
2018-09-24T14:55:47.870Z,1.05
2018-09-24T14:58:21.975Z,1.27
2018-09-24T15:00:56.163Z,0.98
2018-09-24T15:03:30.315Z,1.20
2018-09-24T15:06:04.531Z,1.60
2018-09-24T15:08:42.005Z,0.70
2018-09-24T15:11:17.082Z,1.42
2018-09-24T15:13:51.337Z,0.90
2018-09-24T15:16:25.730Z,1.22
2018-09-24T15:19:00.111Z,1.00
2018-09-24T15:21:34.332Z,1.40
2018-09-24T15:24:08.538Z,1.30
2018-09-24T15:26:42.780Z,1.50
2018-09-24T15:29:17.082Z,1.50
2018-09-24T15:31:51.278Z,0.90
2018-09-24T15:34:25.546Z,1.05
2018-09-24T15:36:59.857Z,1.12
2018-09-24T15:39:34.729Z,1.30
2018-09-24T15:42:10.926Z,1.15
2018-09-24T15:44:45.314Z,1.20
2018-09-24T15:47:19.706Z,1.32
2018-09-24T15:49:54.099Z,1.22
2018-09-24T15:52:28.451Z,1.27
2018-09-24T15:55:02.514Z,1.42
2018-09-24T15:57:36.747Z,1.42
2018-09-24T16:00:11.370Z,1.00
2018-09-24T16:02:45.833Z,1.10
2018-09-24T16:05:20.148Z,1.20
2018-09-24T16:07:54.431Z,1.20
2018-09-24T16:10:28.651Z,1.20
2018-09-24T16:13:02.896Z,1.17
2018-09-24T16:15:37.334Z,0.95
2018-09-24T16:18:11.674Z,1.10
2018-09-24T16:20:45.891Z,1.25
2018-09-24T16:23:20.011Z,0.90
2018-09-24T16:25:54.196Z,1.00
2018-09-24T16:28:28.374Z,1.20
2018-09-24T16:31:02.626Z,0.90
2018-09-24T16:33:37.051Z,1.00
2018-09-24T16:36:11.414Z,1.85
2018-09-24T16:38:45.565Z,0.90
2018-09-24T16:41:19.799Z,0.95
2018-09-24T16:43:53.986Z,1.10
2018-09-24T16:46:28.113Z,0.88
2018-09-24T16:49:02.362Z,1.00
2018-09-24T16:51:36.783Z,1.12
2018-09-24T16:54:11.210Z,1.00
2018-09-24T16:56:45.420Z,1.35
2018-09-24T16:59:19.583Z,1.22
2018-09-24T17:01:53.763Z,1.70
2018-09-24T17:04:28.156Z,1.47
2018-09-24T17:07:02.478Z,1.27
2018-09-24T17:09:40.555Z,1.25
2018-09-24T17:12:14.776Z,1.20
2018-09-24T17:14:48.914Z,1.40
2018-09-24T17:17:23.267Z,0.93
2018-09-24T17:19:57.658Z,1.00
2018-09-24T17:22:31.887Z,1.30
2018-09-24T17:25:06.081Z,1.15
2018-09-24T17:27:40.515Z,1.22
2018-09-24T17:30:14.711Z,1.27
2018-09-24T17:32:49.917Z,1.50
2018-09-24T17:35:24.310Z,1.45
2018-09-24T17:37:58.564Z,1.40
2018-09-24T17:40:32.727Z,1.40
2018-09-24T17:43:07.074Z,1.30
2018-09-24T17:45:41.431Z,1.15
2018-09-24T17:48:15.784Z,1.10
2018-09-24T17:50:50.207Z,1.15
2018-09-24T17:53:24.379Z,1.30
2018-09-24T17:55:58.705Z,1.05
2018-09-24T17:58:33.071Z,1.20
2018-09-24T18:01:07.329Z,1.67
2018-09-24T18:03:41.511Z,1.15
2018-09-24T18:06:15.818Z,1.72
2018-09-24T18:08:50.148Z,1.37
2018-09-24T18:11:24.462Z,1.32
2018-09-24T18:13:59.802Z,1.57
2018-09-24T18:16:33.867Z,2.00
2018-09-24T18:19:08.061Z,1.45
2018-09-24T18:21:42.366Z,1.47
2018-09-24T18:24:16.619Z,1.80
2018-09-24T18:26:50.927Z,1.50
2018-09-24T18:29:25.278Z,1.60
2018-09-24T18:31:59.451Z,1.70
2018-09-24T18:34:33.588Z,2.45
2018-09-24T18:37:07.935Z,1.70
2018-09-24T18:39:42.227Z,1.62
2018-09-24T18:42:16.603Z,1.65
2018-09-24T18:44:50.698Z,1.90
2018-09-24T18:47:25.087Z,2.20
2018-09-24T18:49:59.331Z,1.50
2018-09-24T18:52:33.494Z,1.60
2018-09-24T18:55:08.029Z,2.00
2018-09-24T18:57:42.299Z,1.62
2018-09-24T19:00:16.638Z,1.60
2018-09-24T19:02:50.874Z,1.82
2018-09-24T19:05:25.022Z,1.80
2018-09-24T19:07:59.943Z,1.80
2018-09-24T19:10:35.039Z,2.35
2018-09-24T19:13:09.587Z,1.90
2018-09-24T19:15:43.890Z,1.72
2018-09-24T19:18:18.355Z,1.55
2018-09-24T19:20:52.495Z,1.50
2018-09-24T19:23:26.709Z,1.50
2018-09-24T19:26:01.032Z,1.47
2018-09-24T19:28:35.391Z,1.50
2018-09-24T19:31:09.659Z,3.08
2018-09-24T19:33:43.926Z,1.40
2018-09-24T19:36:18.269Z,1.87
2018-09-24T19:38:52.611Z,1.90
2018-09-24T19:41:26.956Z,2.47
2018-09-24T19:44:01.087Z,2.05
2018-09-24T19:46:35.476Z,1.50
2018-09-24T19:49:09.706Z,1.57
2018-09-24T19:51:44.068Z,1.77
2018-09-24T19:54:18.429Z,1.90
2018-09-24T19:56:52.747Z,1.60
2018-09-24T19:59:26.951Z,1.50
2018-09-24T20:02:01.222Z,1.42
2018-09-24T20:04:35.422Z,1.62
2018-09-24T20:07:09.530Z,2.17
2018-09-24T20:09:43.735Z,1.45
2018-09-24T20:12:17.938Z,2.50
2018-09-24T20:14:52.182Z,1.45
2018-09-24T20:17:26.367Z,1.70
2018-09-24T20:20:00.757Z,1.22
2018-09-24T20:22:35.254Z,2.05
2018-09-24T20:25:09.651Z,2.25
2018-09-24T20:27:43.867Z,1.60
2018-09-24T20:30:18.156Z,1.60
2018-09-24T20:32:52.250Z,2.00
2018-09-24T20:35:26.710Z,2.10
2018-09-24T20:38:00.883Z,1.90
2018-09-24T20:40:35.375Z,2.35
2018-09-24T20:43:09.803Z,2.80
2018-09-24T20:45:43.983Z,3.05
2018-09-24T20:48:18.163Z,1.90
2018-09-24T20:50:52.332Z,1.70
2018-09-24T20:53:26.683Z,1.80
2018-09-24T20:56:00.962Z,1.55
2018-09-24T20:58:35.206Z,2.05
2018-09-24T21:01:09.618Z,2.02
2018-09-24T21:03:43.809Z,1.62
2018-09-24T21:06:17.951Z,1.80
2018-09-24T21:08:52.273Z,2.22
2018-09-24T21:11:26.543Z,3.15
2018-09-24T21:14:00.857Z,2.85
2018-09-24T21:16:35.247Z,2.35
2018-09-24T21:19:09.484Z,1.85
2018-09-24T21:21:43.831Z,2.05
2018-09-24T21:24:17.946Z,2.20
2018-09-24T21:26:52.178Z,2.55
2018-09-24T21:29:26.539Z,2.35
2018-09-24T21:32:00.650Z,1.98
2018-09-24T21:34:35.206Z,1.98
2018-09-24T21:37:09.399Z,2.58
2018-09-24T21:39:43.618Z,1.90
2018-09-24T21:42:17.890Z,2.12
2018-09-24T21:44:52.182Z,2.30
2018-09-24T21:47:26.114Z,2.70
2018-09-24T21:50:00.498Z,2.72
2018-09-24T21:52:34.795Z,2.75
2018-09-24T21:55:09.177Z,2.20
2018-09-24T21:57:43.468Z,1.70
2018-09-24T22:00:17.814Z,2.35
2018-09-24T22:02:52.011Z,2.55
2018-09-24T22:05:26.378Z,2.00
2018-09-24T22:08:00.690Z,1.80
2018-09-24T22:10:35.011Z,1.85
2018-09-24T22:13:09.242Z,1.65
2018-09-24T22:15:43.338Z,1.80
2018-09-24T22:18:17.630Z,1.62
2018-09-24T22:20:52.051Z,1.60
2018-09-24T22:23:26.252Z,1.20
2018-09-24T22:26:00.503Z,1.65
2018-09-24T22:28:34.770Z,1.62
2018-09-24T22:31:08.959Z,1.67
2018-09-24T22:33:43.126Z,1.65
2018-09-24T22:36:17.295Z,1.55
2018-09-24T22:38:51.436Z,1.10
2018-09-24T22:41:25.620Z,1.40
2018-09-24T22:43:59.780Z,1.25
2018-09-24T22:46:34.212Z,1.07
2018-09-24T22:49:08.490Z,1.05
2018-09-24T22:51:42.812Z,1.10
2018-09-24T22:54:17.079Z,1.27
2018-09-24T22:56:51.315Z,1.35
2018-09-24T22:59:25.568Z,0.80
2018-09-24T23:01:59.738Z,1.22
2018-09-24T23:04:33.947Z,1.27
2018-09-24T23:07:08.130Z,2.20
2018-09-24T23:09:42.424Z,1.62
2018-09-24T23:12:16.842Z,1.25
2018-09-24T23:14:51.078Z,1.40
2018-09-24T23:17:25.259Z,1.40
2018-09-24T23:19:59.382Z,1.50
2018-09-24T23:22:33.683Z,1.45
2018-09-24T23:25:07.947Z,1.30
2018-09-24T23:27:42.191Z,1.20
2018-09-24T23:30:16.378Z,1.30
2018-09-24T23:32:50.613Z,1.42
2018-09-24T23:35:24.758Z,1.45
2018-09-24T23:37:58.984Z,1.00
2018-09-24T23:40:33.355Z,1.25
2018-09-24T23:43:07.538Z,1.25
2018-09-24T23:45:41.923Z,1.25
2018-09-24T23:48:16.210Z,1.20
2018-09-24T23:50:50.410Z,1.10
2018-09-24T23:53:24.502Z,1.40
2018-09-24T23:55:58.842Z,1.82
2018-09-24T23:58:33.087Z,1.20
